Baltia — 9HMG9 — position and weather

sailwx.info

Track history (hours):
 
Tides and Currents Weather Stations Pressure Air Temp Water Temp Dewpoint Dewpoint Depression Visibility Wind Speed Wind Dir Waves Ship Positions

Baltia

Last reported at 2017-May-15 21:19 UTC. Time now 2017-May-27 00:34 UTC.
Position N 31°27' E 032°18'.
Warning: this ship's position is 11 days out of date.

Length 224 m; draft 14 m.

Type: Cargo ship. MMSI: 249174000.

Date/timePositionNaut miles runAvg speedWind from/ knotsBaromVisibWave heightAir tempDewpointWater temp
2017-May-15 21:19N 31°27' E 032°18'0 0.0
2017-May-15 17:11N 31°27' E 032°18'0 0.0
2017-May-15 16:59N 31°27' E 032°18'0 0.0
2017-May-15 15:56N 31°27' E 032°18'0 0.1
2017-May-15 13:51N 31°27' E 032°18'2 4.8
2017-May-15 13:30N 31°28' E 032°16'3512.5
2017-May-15 10:41N 31°50' E 031°44'213.2
2017-May-15 10:30N 31°50' E 031°41'713.2
2017-May-15 10:00N 31°52' E 031°34'4413.2
2017-May-15 06:42N 32°03' E 030°44'1313.4
2017-May-15 05:43N 32°06' E 030°29'1113.3
2017-May-15 04:51N 32°09' E 030°15'1813.4
2017-May-15 03:32N 32°13' E 029°55'013.1
2017-May-15 03:30N 32°13' E 029°55'713.3
2017-May-15 02:59N 32°15' E 029°47'  
2017-May-12 20:44N 35°08' E 016°02'312.6
2017-May-12 20:29N 35°09' E 015°58'612.6
2017-May-12 20:00N 35°10' E 015°51'612.7
2017-May-12 19:30N 35°12' E 015°43'612.9
2017-May-12 19:00N 35°13' E 015°36'713.0
2017-May-12 18:30N 35°15' E 015°28'613.0
2017-May-12 18:01N 35°17' E 015°20'713.1
2017-May-12 17:30N 35°18' E 015°12'613.0
2017-May-12 17:01N 35°20' E 015°05'712.9
2017-May-12 16:30N 35°21' E 014°57'612.7
2017-May-12 16:00N 35°23' E 014°49'612.7
2017-May-12 15:30N 35°24' E 014°42'612.8
2017-May-12 15:00N 35°26' E 014°34'612.9
2017-May-12 14:30N 35°27' E 014°26'1312.7
2017-May-12 13:30N 35°31' E 014°12'612.6
2017-May-12 13:00N 35°35' E 014°06'612.7
2017-May-12 12:30N 35°39' E 013°60'612.8
2017-May-12 12:00N 35°43' E 013°53'613.1
2017-May-12 11:30N 35°48' E 013°48'713.3
2017-May-12 11:00N 35°52' E 013°41'713.2
2017-May-12 10:30N 35°56' E 013°35'713.0
2017-May-12 10:00N 36°01' E 013°29'612.9
2017-May-12 09:30N 36°05' E 013°23'612.9
2017-May-12 09:00N 36°10' E 013°18'612.7
2017-May-12 08:30N 36°14' E 013°12'612.6
2017-May-12 08:00N 36°18' E 013°06'612.8
2017-May-12 07:30N 36°22' E 012°60'713.1
2017-May-12 06:59N 36°26' E 012°53'613.3
2017-May-12 06:29N 36°31' E 012°47'14013.1
2017-May-11 19:47N 37°33' E 010°10'25813.3
2017-May-11 00:22N 37°27' E 004°45'513.1
2017-May-11 00:00N 37°26' E 004°39'713.2
2017-May-10 23:30N 37°26' E 004°31'2213.1
2017-May-10 21:50N 37°24' E 004°03'4613.0
2017-May-10 18:15N 37°15' E 003°06'313.3
2017-May-10 18:00N 37°15' E 003°02'1213.3
2017-May-10 17:07N 37°12' E 002°47'313.1
2017-May-10 16:54N 37°11' E 002°44'713.1
2017-May-10 16:23N 37°09' E 002°36'513.0
2017-May-10 16:00N 37°08' E 002°30'1412.7
2017-May-10 14:54N 37°05' E 002°13'1212.8
2017-May-10 13:59N 37°02' E 001°59'613.0
2017-May-10 13:30N 37°00' E 001°51'713.3
2017-May-10 13:00N 36°59' E 001°43'10213.5
2017-May-10 05:24N 36°34' W 000°21'32913.2
2017-May-09 04:30N 35°53' W 007°05'1612.4
2017-May-09 03:11N 35°53' W 007°25'212.3
2017-May-09 03:00N 35°53' W 007°28'612.5
2017-May-09 02:30N 35°52' W 007°36'612.6
2017-May-09 02:00N 35°52' W 007°44'612.2
2017-May-09 01:29N 35°52' W 007°51'612.0
2017-May-09 01:00N 35°52' W 007°58'3812.5
2017-May-08 21:56N 35°56' W 008°45'612.5
2017-May-08 21:29N 35°56' W 008°52'612.7
2017-May-08 21:00N 35°57' W 008°60'612.9
2017-May-08 20:30N 35°57' W 009°08'612.8
2017-May-08 20:00N 35°58' W 009°16'612.9
2017-May-08 19:30N 35°59' W 009°24'612.7
2017-May-08 19:00N 35°59' W 009°31'612.9
2017-May-08 18:30N 35°60' W 009°39'713.1
2017-May-08 18:00N 36°00' W 009°47'2113.0
2017-May-08 16:22N 36°02' W 010°14'  
2017-May-06 11:07N 37°04' W 023°35'212.4
2017-May-06 10:59N 37°04' W 023°37'612.3
2017-May-06 10:30N 37°04' W 023°45'612.4
2017-May-06 10:00N 37°05' W 023°52'612.4
2017-May-06 09:30N 37°06' W 024°00'612.2
2017-May-06 09:00N 37°06' W 024°08'612.6
2017-May-06 08:31N 37°07' W 024°16'612.4
2017-May-06 08:00N 37°07' W 024°23'612.2
2017-May-06 07:30N 37°08' W 024°31'612.3
2017-May-06 07:00N 37°09' W 024°39'612.6
2017-May-06 06:30N 37°09' W 024°46'612.3
2017-May-06 06:01N 37°10' W 024°54'612.2
2017-May-06 05:31N 37°10' W 025°02'612.2
2017-May-06 05:00N 37°11' W 025°09'612.3
2017-May-06 04:30N 37°11' W 025°17'612.2
2017-May-06 04:01N 37°12' W 025°25'612.4
2017-May-06 03:30N 37°13' W 025°32'612.5
2017-May-06 03:01N 37°13' W 025°40'612.5
2017-May-06 02:30N 37°14' W 025°48'612.7
2017-May-06 02:01N 37°14' W 025°56'612.5
2017-May-06 01:30N 37°15' W 026°04'612.4
2017-May-06 01:00N 37°15' W 026°12'612.5
2017-May-06 00:30N 37°16' W 026°19'612.6
2017-May-06 00:01N 37°16' W 026°27'612.6
2017-May-05 23:31N 37°17' W 026°35'612.5
2017-May-05 23:01N 37°17' W 026°43'612.9
2017-May-05 22:31N 37°18' W 026°51'612.8
2017-May-05 22:00N 37°18' W 026°59'612.9
2017-May-05 21:30N 37°19' W 027°07'  
Track history (hours):
 
Tides and Currents Weather Stations Pressure Air Temp Water Temp Dewpoint Dewpoint Depression Visibility Wind Speed Wind Dir Waves Ship Positions

Baltia

Last reported at 2017-May-15 21:19 UTC. Time now 2017-May-27 00:34 UTC.
Position N 31°27' E 032°18'.
Warning: this ship's position is 11 days out of date.

Length 224 m; draft 14 m.

Type: Cargo ship. MMSI: 249174000.

Date/timePositionNaut miles runAvg speedWind from/ knotsBaromVisibWave heightAir tempDewpointWater temp
2017-May-15 21:19N 31°27' E 032°18'0 0.0
2017-May-15 17:11N 31°27' E 032°18'0 0.0
2017-May-15 16:59N 31°27' E 032°18'0 0.0
2017-May-15 15:56N 31°27' E 032°18'0 0.1
2017-May-15 13:51N 31°27' E 032°18'2 4.8
2017-May-15 13:30N 31°28' E 032°16'3512.5
2017-May-15 10:41N 31°50' E 031°44'213.2
2017-May-15 10:30N 31°50' E 031°41'713.2
2017-May-15 10:00N 31°52' E 031°34'4413.2
2017-May-15 06:42N 32°03' E 030°44'1313.4
2017-May-15 05:43N 32°06' E 030°29'1113.3
2017-May-15 04:51N 32°09' E 030°15'1813.4
2017-May-15 03:32N 32°13' E 029°55'013.1
2017-May-15 03:30N 32°13' E 029°55'713.3
2017-May-15 02:59N 32°15' E 029°47'  
2017-May-12 20:44N 35°08' E 016°02'312.6
2017-May-12 20:29N 35°09' E 015°58'612.6
2017-May-12 20:00N 35°10' E 015°51'612.7
2017-May-12 19:30N 35°12' E 015°43'612.9
2017-May-12 19:00N 35°13' E 015°36'713.0
2017-May-12 18:30N 35°15' E 015°28'613.0
2017-May-12 18:01N 35°17' E 015°20'713.1
2017-May-12 17:30N 35°18' E 015°12'613.0
2017-May-12 17:01N 35°20' E 015°05'712.9
2017-May-12 16:30N 35°21' E 014°57'612.7
2017-May-12 16:00N 35°23' E 014°49'612.7
2017-May-12 15:30N 35°24' E 014°42'612.8
2017-May-12 15:00N 35°26' E 014°34'612.9
2017-May-12 14:30N 35°27' E 014°26'1312.7
2017-May-12 13:30N 35°31' E 014°12'612.6
2017-May-12 13:00N 35°35' E 014°06'612.7
2017-May-12 12:30N 35°39' E 013°60'612.8
2017-May-12 12:00N 35°43' E 013°53'613.1
2017-May-12 11:30N 35°48' E 013°48'713.3
2017-May-12 11:00N 35°52' E 013°41'713.2
2017-May-12 10:30N 35°56' E 013°35'713.0
2017-May-12 10:00N 36°01' E 013°29'612.9
2017-May-12 09:30N 36°05' E 013°23'612.9
2017-May-12 09:00N 36°10' E 013°18'612.7
2017-May-12 08:30N 36°14' E 013°12'612.6
2017-May-12 08:00N 36°18' E 013°06'612.8
2017-May-12 07:30N 36°22' E 012°60'713.1
2017-May-12 06:59N 36°26' E 012°53'613.3
2017-May-12 06:29N 36°31' E 012°47'14013.1
2017-May-11 19:47N 37°33' E 010°10'25813.3
2017-May-11 00:22N 37°27' E 004°45'513.1
2017-May-11 00:00N 37°26' E 004°39'713.2
2017-May-10 23:30N 37°26' E 004°31'2213.1
2017-May-10 21:50N 37°24' E 004°03'4613.0
2017-May-10 18:15N 37°15' E 003°06'313.3
2017-May-10 18:00N 37°15' E 003°02'1213.3
2017-May-10 17:07N 37°12' E 002°47'313.1
2017-May-10 16:54N 37°11' E 002°44'713.1
2017-May-10 16:23N 37°09' E 002°36'513.0
2017-May-10 16:00N 37°08' E 002°30'1412.7
2017-May-10 14:54N 37°05' E 002°13'1212.8
2017-May-10 13:59N 37°02' E 001°59'613.0
2017-May-10 13:30N 37°00' E 001°51'713.3
2017-May-10 13:00N 36°59' E 001°43'10213.5
2017-May-10 05:24N 36°34' W 000°21'32913.2
2017-May-09 04:30N 35°53' W 007°05'1612.4
2017-May-09 03:11N 35°53' W 007°25'212.3
2017-May-09 03:00N 35°53' W 007°28'612.5
2017-May-09 02:30N 35°52' W 007°36'612.6
2017-May-09 02:00N 35°52' W 007°44'612.2
2017-May-09 01:29N 35°52' W 007°51'612.0
2017-May-09 01:00N 35°52' W 007°58'3812.5
2017-May-08 21:56N 35°56' W 008°45'612.5
2017-May-08 21:29N 35°56' W 008°52'612.7
2017-May-08 21:00N 35°57' W 008°60'612.9
2017-May-08 20:30N 35°57' W 009°08'612.8
2017-May-08 20:00N 35°58' W 009°16'612.9
2017-May-08 19:30N 35°59' W 009°24'612.7
2017-May-08 19:00N 35°59' W 009°31'612.9
2017-May-08 18:30N 35°60' W 009°39'713.1
2017-May-08 18:00N 36°00' W 009°47'2113.0
2017-May-08 16:22N 36°02' W 010°14'  
2017-May-06 11:07N 37°04' W 023°35'212.4
2017-May-06 10:59N 37°04' W 023°37'612.3
2017-May-06 10:30N 37°04' W 023°45'612.4
2017-May-06 10:00N 37°05' W 023°52'612.4
2017-May-06 09:30N 37°06' W 024°00'612.2
2017-May-06 09:00N 37°06' W 024°08'612.6
2017-May-06 08:31N 37°07' W 024°16'612.4
2017-May-06 08:00N 37°07' W 024°23'612.2
2017-May-06 07:30N 37°08' W 024°31'612.3
2017-May-06 07:00N 37°09' W 024°39'612.6
2017-May-06 06:30N 37°09' W 024°46'612.3
2017-May-06 06:01N 37°10' W 024°54'612.2
2017-May-06 05:31N 37°10' W 025°02'612.2
2017-May-06 05:00N 37°11' W 025°09'612.3
2017-May-06 04:30N 37°11' W 025°17'612.2
2017-May-06 04:01N 37°12' W 025°25'612.4
2017-May-06 03:30N 37°13' W 025°32'612.5
2017-May-06 03:01N 37°13' W 025°40'612.5
2017-May-06 02:30N 37°14' W 025°48'612.7
2017-May-06 02:01N 37°14' W 025°56'612.5
2017-May-06 01:30N 37°15' W 026°04'612.4
2017-May-06 01:00N 37°15' W 026°12'612.5
2017-May-06 00:30N 37°16' W 026°19'612.6
2017-May-06 00:01N 37°16' W 026°27'612.6
2017-May-05 23:31N 37°17' W 026°35'612.5
2017-May-05 23:01N 37°17' W 026°43'612.9
2017-May-05 22:31N 37°18' W 026°51'612.8
2017-May-05 22:00N 37°18' W 026°59'612.9
2017-May-05 21:30N 37°19' W 027°07'  

Dump ship's entire track history